Flight Track Log - Related Links

Times and Time Zones

All times are in EDT time to prevent confusion due to time zone crossing. See the VH-QOJ flight status page for this flight to view local times or setup timezone preferences in your user account.

Time Position Orientation Groundspeed Altitude Reporting Facility
EDT Latitude Longitude Course Direction KTS MPH feet Rate Location/Type
Wed 07:48:51 PM -25.0199 152.3471 348° North 17,000  Level Aus ATC (Calculated)
Wed 07:49:23 PM -25.0015 152.3428 171° South 206 237 4,900 -6,966 Descending Aus ATC (RADAR)
Wed 07:50:18 PM -25.0521 152.3516 164° South 212 244 6,900 1,886 Climbing Aus ATC (RADAR)
Wed 07:51:08 PM -25.1044 152.3677 167° South 240 276 8,200 1,835 Climbing Aus ATC (RADAR)
Wed 07:51:43 PM -25.1457 152.3786 168° South 260 299 9,500 2,000 Climbing Aus ATC (RADAR)
Wed 07:52:38 PM -25.2133 152.3941 169° South 275 316 11,200 1,778 Climbing Aus ATC (RADAR)
Wed 07:53:58 PM -25.3164 152.4162 168° South 289 333 13,500 1,824 Climbing Aus ATC (RADAR)
Wed 07:54:43 PM -25.3748 152.4302 167° South 285 328 15,000 1,680 Climbing Aus ATC (RADAR)
Wed 07:55:38 PM -25.4464 152.4483 168° South 290 334 16,300 1,200 Climbing Aus ATC (RADAR)
Wed 07:56:33 PM -25.5213 152.4655 168° South 306 352 17,200 600 Climbing Aus ATC (RADAR)
Wed 07:57:08 PM -25.5704 152.4767 168° South 308 354 17,200  Level Aus ATC (RADAR)
Wed 07:58:33 PM -25.6796 152.5034 168° South 273 314 17,200  Level Aus ATC (RADAR)
Wed 07:59:37 PM -25.7603 152.5226 169° South 276 318 17,200  Level Aus ATC (RADAR)
Wed 08:00:07 PM -25.7981 152.5311 167° South 277 319 17,200  Level Aus ATC (RADAR)
Wed 08:01:02 PM -25.8674 152.5484 167° South 280 322 17,200  Level Aus ATC (RADAR)
Wed 08:01:52 PM -25.9309 152.5643 168° South 281 323 17,200  Level Aus ATC (RADAR)
Wed 08:02:47 PM -26.0003 152.5808 168° South 281 323 17,200  Level Aus ATC (RADAR)
Wed 08:04:07 PM -26.1008 152.6046 168° South 274 315 17,200  Level Aus ATC (RADAR)
Wed 08:04:57 PM -26.1629 152.6192 167° South 273 314 17,200  Level Aus ATC (RADAR)
Wed 08:05:47 PM -26.2241 152.6344 167° South 268 308 17,200  Level Aus ATC (RADAR)
Wed 08:06:22 PM -26.2668 152.6455 192° South 270 311 17,200  Level Aus ATC (RADAR)
Wed 08:07:24 PM -26.3368 152.6285 204° Southwest 268 308 17,200  Level Aus ATC (RADAR)
Wed 08:09:26 PM -26.4798 152.5576 204° Southwest 280 322 17,200 -102 Level Aus ATC (RADAR)
Wed 08:10:21 PM -26.5455 152.5245 183° South 289 333 16,900 -750 Descending Aus ATC (RADAR)
Wed 08:11:26 PM -26.6280 152.5199 126° Southeast 305 351 15,700 -1,029 Descending Aus ATC (RADAR)
Wed 08:12:06 PM -26.6589 152.5680 115° Southeast 271 312 15,100 -988 Descending Aus ATC (RADAR)
Wed 08:12:51 PM -26.6844 152.6286 119° Southeast 282 325 14,300 -1,329 Descending Aus ATC (RADAR)
Wed 08:14:26 PM -26.7499 152.7636 151° Southeast 319 367 12,000 -1,400 Descending Aus ATC (RADAR)
Wed 08:15:21 PM -26.8184 152.8059 154° Southeast 298 343 10,800 -1,389 Descending Aus ATC (RADAR)
Wed 08:16:01 PM -26.8661 152.8324 152° Southeast 281 323 9,800 -1,367 Descending Aus ATC (RADAR)
Wed 08:16:40 PM -26.9104 152.8587 151° Southeast 266 306 9,000 -1,212 Descending Aus ATC (RADAR)
Wed 08:17:45 PM -26.9791 152.9009 151° Southeast 256 295 7,700 -1,159 Descending Aus ATC (RADAR)
Wed 08:19:05 PM -27.0633 152.9527 152° Southeast 251 289 6,200 -1,108 Descending Aus ATC (RADAR)
Wed 08:19:55 PM -27.1139 152.9836 151° Southeast 244 281 5,300 -1,140 Descending Aus ATC (RADAR)
Wed 08:20:45 PM -27.1632 153.0143 152° Southeast 239 275 4,300 -1,129 Descending Aus ATC (RADAR)
Wed 08:21:20 PM -27.1975 153.0349 151° Southeast 235 270 3,700 -1,129 Descending Aus ATC (RADAR)
Wed 08:22:10 PM -27.2451 153.0646 140° Southeast 228 262 2,700 -1,200 Descending Aus ATC (RADAR)
Wed 08:23:05 PM -27.2881 153.1045 136° Southeast 206 237 1,600 -887 Descending Aus ATC (RADAR)
Wed 08:24:05 PM -27.3240 153.1435 179° South 156 180 1,000 -528 Descending Aus ATC (RADAR)
Wed 08:25:10 PM -27.3573 153.1439 179° South 128 147 500 -462 Descending Aus ATC (RADAR)

Login

Don't have an account? Register now (free) for customized features, flight alerts, and more!